Time;durP1;ratioP1;P1;durP2;ratioP2;P2;SDS_P1;SDS_P2;PMS_P1;PMS_P2;Temp;Humidity;BMP_temperature;BMP_pressure;BME280_temperature;BME280_humidity;BME280_pressure;Samples;Min_cycle;Max_cycle;Signal;HPM_P1;HPM_P2
2021/07/14 00:02:21;;;;;;;5.07;1.67;;;21.60;61.70;;;;;;5066504;28;20275;-64
2021/07/14 00:04:48;;;;;;;4.87;1.70;;;21.60;61.60;;;;;;5069208;28;20237;-64
2021/07/14 00:07:15;;;;;;;7.93;1.93;;;21.60;61.40;;;;;;5069199;28;20301;-65
2021/07/14 00:09:43;;;;;;;2.93;1.90;;;21.60;61.40;;;;;;5066375;28;20210;-64
2021/07/14 00:12:12;;;;;;;5.93;1.77;;;21.50;61.70;;;;;;5069278;28;20222;-64
2021/07/14 00:17:25;;;;;;;6.03;2.47;;;21.40;62.20;;;;;;5065664;28;20635;-64
2021/07/14 00:22:40;;;;;;;7.17;1.40;;;21.30;62.40;;;;;;5067030;28;20210;-64
2021/07/14 00:25:11;;;;;;;4.67;2.07;;;21.30;62.50;;;;;;5065516;28;20221;-64
2021/07/14 00:27:44;;;;;;;4.33;1.67;;;21.30;62.60;;;;;;5062888;28;20289;-64
2021/07/14 00:30:15;;;;;;;4.30;1.60;;;21.30;62.90;;;;;;5071434;28;20217;-64
2021/07/14 00:32:42;;;;;;;7.90;2.00;;;21.30;62.90;;;;;;5067218;28;20237;-64
2021/07/14 00:35:12;;;;;;;5.53;2.00;;;21.30;62.90;;;;;;5065462;28;20250;-64
2021/07/14 00:37:39;;;;;;;5.23;1.93;;;21.20;63.00;;;;;;5071077;28;20206;-64
2021/07/14 00:40:10;;;;;;;4.67;2.00;;;21.20;63.30;;;;;;5062684;28;20209;-64
2021/07/14 00:42:38;;;;;;;9.10;2.17;;;21.10;63.80;;;;;;5067127;28;20216;-64
2021/07/14 00:45:06;;;;;;;3.53;1.97;;;21.10;64.20;;;;;;5066858;28;20210;-64
2021/07/14 00:47:35;;;;;;;3.67;2.03;;;21.10;65.10;;;;;;5066822;28;20218;-64
2021/07/14 00:50:04;;;;;;;5.40;1.93;;;21.00;65.70;;;;;;5064967;28;20230;-64
2021/07/14 00:52:32;;;;;;;8.43;2.90;;;20.90;66.30;;;;;;5062819;28;20678;-64
2021/07/14 00:54:59;;;;;;;5.17;1.83;;;20.80;66.80;;;;;;5065280;28;20294;-64
2021/07/14 00:57:28;;;;;;;6.50;2.07;;;20.80;67.30;;;;;;5065745;28;20217;-64
2021/07/14 00:59:55;;;;;;;4.13;2.03;;;20.70;67.30;;;;;;5064060;28;20210;-64
2021/07/14 01:02:24;;;;;;;10.97;3.33;;;20.60;67.30;;;;;;5065859;28;20640;-64
2021/07/14 01:05:05;;;;;;;4.57;1.70;;;20.40;67.60;;;;;;5063561;28;20297;-64
2021/07/14 01:07:41;;;;;;;7.80;1.93;;;20.20;68.20;;;;;;5063647;28;20267;-64
2021/07/14 01:10:22;;;;;;;6.53;2.40;;;20.20;68.50;;;;;;5062276;28;20217;-64
2021/07/14 01:13:04;;;;;;;7.83;1.93;;;20.10;68.60;;;;;;5065652;28;20632;-64
2021/07/14 01:15:48;;;;;;;5.87;2.03;;;20.10;68.40;;;;;;5063000;28;20288;-64
2021/07/14 01:18:18;;;;;;;4.60;1.57;;;20.20;68.20;;;;;;5066460;28;20788;-64
2021/07/14 01:20:47;;;;;;;4.33;1.90;;;20.20;68.10;;;;;;5063874;28;20271;-64
2021/07/14 01:23:40;;;;;;;6.07;2.17;;;20.20;67.80;;;;;;5063176;28;20211;-64
2021/07/14 01:26:25;;;;;;;6.27;2.60;;;20.20;67.50;;;;;;5063681;28;20225;-64
2021/07/14 01:28:54;;;;;;;3.63;1.57;;;20.20;67.30;;;;;;5063666;28;20453;-64
2021/07/14 01:31:22;;;;;;;6.93;2.20;;;20.20;67.30;;;;;;5062551;28;20560;-64
2021/07/14 01:33:58;;;;;;;6.23;2.07;;;20.10;67.50;;;;;;5064259;28;20251;-64
2021/07/14 01:36:28;;;;;;;9.73;1.70;;;20.10;67.60;;;;;;5068998;28;20229;-64
2021/07/14 01:38:57;;;;;;;6.13;2.33;;;20.10;67.80;;;;;;5065509;28;20224;-64
2021/07/14 01:41:31;;;;;;;4.57;2.20;;;20.00;68.00;;;;;;5062956;28;20293;-64
2021/07/14 01:44:00;;;;;;;5.33;2.17;;;20.00;68.10;;;;;;5062301;28;20218;-64
2021/07/14 01:46:31;;;;;;;7.30;2.57;;;20.00;68.20;;;;;;5064587;28;20275;-64
2021/07/14 01:49:03;;;;;;;6.90;2.03;;;20.00;68.20;;;;;;5065718;28;20691;-64
2021/07/14 01:51:32;;;;;;;3.53;1.90;;;20.00;67.70;;;;;;5063478;28;20243;-64
2021/07/14 01:54:04;;;;;;;10.53;1.83;;;20.00;67.30;;;;;;5064772;28;20659;-64
2021/07/14 01:56:35;;;;;;;5.37;1.83;;;20.00;67.00;;;;;;5060605;28;20241;-64
2021/07/14 01:59:02;;;;;;;4.70;1.83;;;20.00;66.70;;;;;;5065124;28;20259;-64
2021/07/14 02:01:31;;;;;;;6.40;2.03;;;20.00;66.80;;;;;;5064528;28;20674;-64
2021/07/14 02:06:47;;;;;;;9.53;2.33;;;19.90;67.00;;;;;;5063074;28;20263;-64
2021/07/14 02:09:16;;;;;;;4.40;2.03;;;19.80;67.40;;;;;;5059950;28;20214;-64
2021/07/14 02:11:46;;;;;;;4.67;2.10;;;19.70;67.60;;;;;;5062237;28;20288;-64
2021/07/14 02:14:20;;;;;;;7.00;1.60;;;19.50;67.80;;;;;;5066277;28;20209;-64
2021/07/14 02:17:13;;;;;;;8.37;2.80;;;19.50;68.10;;;;;;5061784;28;20557;-64
2021/07/14 02:19:46;;;;;;;4.23;1.80;;;19.40;68.10;;;;;;5061631;28;20588;-64
2021/07/14 02:22:13;;;;;;;4.37;1.67;;;19.40;68.40;;;;;;5062709;28;20210;-64
2021/07/14 02:24:40;;;;;;;5.60;1.67;;;19.40;68.80;;;;;;5064536;28;20209;-64
2021/07/14 02:27:10;;;;;;;10.07;1.93;;;19.30;68.90;;;;;;5064557;28;20295;-64
2021/07/14 02:29:38;;;;;;;3.87;1.80;;;19.30;68.90;;;;;;5064610;28;20258;-64
2021/07/14 02:32:14;;;;;;;8.27;2.10;;;19.30;68.90;;;;;;5064412;28;20228;-64
2021/07/14 02:34:43;;;;;;;5.97;2.00;;;19.30;68.80;;;;;;5064189;28;20217;-64
2021/07/14 02:37:12;;;;;;;2.10;1.30;;;19.30;68.50;;;;;;5067512;28;20206;-64
2021/07/14 02:39:43;;;;;;;4.77;1.77;;;19.30;68.80;;;;;;5063405;28;20624;-64
2021/07/14 02:42:27;;;;;;;2.77;1.60;;;19.20;68.60;;;;;;5062381;28;20210;-64
2021/07/14 02:44:55;;;;;;;6.57;2.07;;;19.10;68.30;;;;;;5064748;28;20214;-64
2021/07/14 02:47:23;;;;;;;3.53;1.57;;;19.00;68.30;;;;;;5062478;28;20222;-64
2021/07/14 02:49:50;;;;;;;5.80;2.00;;;18.90;68.40;;;;;;5061151;28;20214;-64
2021/07/14 02:52:22;;;;;;;6.90;2.30;;;18.90;68.50;;;;;;5062359;28;20218;-64
2021/07/14 02:54:50;;;;;;;7.17;1.90;;;18.90;68.40;;;;;;5063126;28;20660;-64
2021/07/14 02:57:19;;;;;;;5.40;2.03;;;18.90;68.70;;;;;;5062132;28;20210;-64
2021/07/14 02:59:53;;;;;;;8.47;2.10;;;19.00;68.90;;;;;;5064566;28;20218;-64
2021/07/14 03:02:21;;;;;;;8.83;2.47;;;19.00;69.20;;;;;;5066656;28;20221;-64
2021/07/14 03:04:51;;;;;;;4.83;1.70;;;19.10;69.00;;;;;;5065372;28;20214;-64
2021/07/14 03:07:24;;;;;;;8.60;1.90;;;19.20;68.70;;;;;;5066741;28;20651;-64
2021/07/14 03:09:52;;;;;;;13.57;2.20;;;19.30;68.70;;;;;;5064430;28;20224;-64
2021/07/14 03:12:21;;;;;;;3.03;1.77;;;19.30;68.70;;;;;;5069281;28;20224;-64
2021/07/14 03:15:01;;;;;;;8.23;1.83;;;19.40;68.50;;;;;;5065480;28;20215;-64
2021/07/14 03:17:31;;;;;;;4.40;1.80;;;19.50;68.80;;;;;;5065421;28;20241;-64
2021/07/14 03:20:01;;;;;;;6.03;2.40;;;19.60;68.60;;;;;;5066955;28;20206;-64
2021/07/14 03:22:29;;;;;;;5.20;1.93;;;19.60;68.40;;;;;;5067757;28;20210;-64
2021/07/14 03:24:57;;;;;;;14.57;2.63;;;19.70;68.20;;;;;;5066388;28;20644;-64
2021/07/14 03:27:25;;;;;;;4.30;1.67;;;19.80;68.10;;;;;;5065690;28;20223;-64
2021/07/14 03:29:53;;;;;;;8.40;2.83;;;19.80;68.10;;;;;;5067702;28;20210;-64
2021/07/14 03:32:20;;;;;;;6.73;2.27;;;19.80;68.20;;;;;;5071320;28;20271;-64
2021/07/14 03:34:48;;;;;;;8.60;2.20;;;19.90;68.40;;;;;;5069386;28;20754;-64
2021/07/14 03:37:15;;;;;;;9.00;1.80;;;19.90;68.50;;;;;;5080298;28;20289;-64
2021/07/14 03:39:43;;;;;;;7.30;1.90;;;19.90;68.80;;;;;;5080420;28;20210;-64
2021/07/14 03:42:16;;;;;;;7.40;2.10;;;19.90;68.90;;;;;;5079812;28;20241;-64
2021/07/14 03:44:46;;;;;;;7.23;2.10;;;19.90;69.20;;;;;;5079887;28;20727;-64
2021/07/14 03:47:18;;;;;;;5.83;2.13;;;19.90;69.40;;;;;;5077044;28;20768;-64
2021/07/14 03:49:46;;;;;;;3.43;1.70;;;19.90;69.50;;;;;;5076069;28;20244;-64
2021/07/14 03:52:15;;;;;;;7.30;1.90;;;19.90;69.80;;;;;;5076473;28;20264;-64
2021/07/14 03:54:42;;;;;;;4.43;1.90;;;19.90;69.90;;;;;;5076119;28;20263;-64
2021/07/14 03:57:10;;;;;;;8.20;2.67;;;19.90;69.80;;;;;;5062269;28;20234;-64
2021/07/14 03:59:40;;;;;;;6.47;2.17;;;19.90;69.80;;;;;;5056010;28;20639;-64
2021/07/14 04:02:11;;;;;;;7.87;2.50;;;19.90;69.80;;;;;;5055977;28;20218;-64
2021/07/14 04:04:38;;;;;;;10.13;2.57;;;20.00;69.60;;;;;;5055867;28;20659;-64
2021/07/14 04:07:17;;;;;;;4.73;2.27;;;20.00;69.40;;;;;;5056433;28;20217;-64
2021/07/14 04:09:46;;;;;;;9.40;2.50;;;20.00;69.20;;;;;;5055860;28;20221;-64
2021/07/14 04:12:14;;;;;;;5.67;2.07;;;20.00;68.80;;;;;;5060216;28;20209;-64
2021/07/14 04:14:41;;;;;;;4.90;2.10;;;20.10;68.70;;;;;;5075990;28;20210;-64
2021/07/14 04:17:09;;;;;;;13.37;2.20;;;20.10;68.20;;;;;;5075780;28;20237;-64
2021/07/14 04:19:37;;;;;;;5.63;2.03;;;20.10;68.10;;;;;;5075544;28;20229;-64
2021/07/14 04:22:05;;;;;;;5.63;1.97;;;20.10;68.30;;;;;;5074916;28;20205;-64
2021/07/14 04:24:32;;;;;;;3.47;1.83;;;20.10;68.30;;;;;;5076421;28;20206;-64
2021/07/14 04:27:00;;;;;;;7.57;2.10;;;20.10;68.70;;;;;;5075718;28;20243;-64
2021/07/14 04:29:27;;;;;;;10.40;2.60;;;20.20;68.80;;;;;;5075686;28;20544;-64
2021/07/14 04:31:54;;;;;;;8.03;2.30;;;20.20;68.20;;;;;;5075475;28;20639;-64
2021/07/14 04:34:22;;;;;;;7.43;1.93;;;20.30;67.80;;;;;;5075345;28;20252;-64
2021/07/14 04:36:48;;;;;;;6.70;1.87;;;20.40;67.30;;;;;;5063663;28;20234;-64
2021/07/14 04:39:16;;;;;;;7.73;2.03;;;20.50;66.90;;;;;;5072067;28;20659;-64
2021/07/14 04:41:43;;;;;;;6.93;1.90;;;20.70;66.50;;;;;;5074874;28;20225;-64
2021/07/14 04:44:11;;;;;;;7.50;2.10;;;20.80;66.10;;;;;;5075220;28;20221;-64
2021/07/14 04:46:39;;;;;;;3.80;2.20;;;21.00;66.10;;;;;;5075162;28;20283;-64
2021/07/14 04:49:08;;;;;;;5.50;2.10;;;21.20;66.90;;;;;;5075124;28;20209;-64
2021/07/14 04:51:35;;;;;;;8.27;3.13;;;21.30;66.30;;;;;;5074972;28;20209;-64
2021/07/14 04:54:02;;;;;;;9.60;2.63;;;21.40;66.40;;;;;;5075671;28;20221;-64
2021/07/14 04:56:29;;;;;;;6.63;2.43;;;21.60;65.20;;;;;;5075140;28;20225;-64
2021/07/14 04:58:56;;;;;;;9.17;2.40;;;21.70;64.90;;;;;;5074858;28;20224;-64
2021/07/14 05:01:23;;;;;;;13.37;2.57;;;21.80;64.50;;;;;;5074655;28;20210;-64
2021/07/14 05:03:50;;;;;;;11.70;2.43;;;21.90;64.10;;;;;;5074822;28;20262;-64
2021/07/14 05:06:18;;;;;;;10.47;2.27;;;22.00;64.00;;;;;;5074610;28;20769;-64
2021/07/14 05:08:45;;;;;;;11.53;2.33;;;22.00;64.00;;;;;;5074527;28;20213;-64
2021/07/14 05:11:13;;;;;;;8.80;2.27;;;22.10;64.20;;;;;;5074906;28;20216;-64
2021/07/14 05:13:41;;;;;;;6.00;2.20;;;22.20;64.10;;;;;;5075110;28;20198;-64
2021/07/14 05:16:08;;;;;;;5.13;2.00;;;22.20;63.80;;;;;;5074662;28;20240;-64
2021/07/14 05:18:37;;;;;;;10.17;2.57;;;22.30;63.40;;;;;;5074437;28;20687;-64
2021/07/14 05:21:05;;;;;;;6.37;2.47;;;22.30;63.00;;;;;;5074639;28;20234;-64
2021/07/14 05:23:32;;;;;;;7.53;2.80;;;22.40;62.80;;;;;;5074654;28;20217;-64
2021/07/14 05:26:00;;;;;;;10.00;2.47;;;22.40;62.30;;;;;;5074679;28;20600;-64
2021/07/14 05:28:28;;;;;;;6.30;1.90;;;22.50;62.00;;;;;;5074448;28;20220;-64
2021/07/14 05:30:55;;;;;;;9.23;2.47;;;22.70;61.60;;;;;;5074489;28;20224;-64
2021/07/14 05:33:22;;;;;;;5.40;2.00;;;22.80;61.10;;;;;;5074934;28;20206;-64
2021/07/14 05:35:49;;;;;;;4.80;2.13;;;23.00;60.50;;;;;;5071317;28;20280;-64
2021/07/14 05:38:20;;;;;;;7.53;2.40;;;23.30;60.20;;;;;;5063200;28;20278;-64
2021/07/14 05:40:48;;;;;;;4.30;1.77;;;23.60;59.70;;;;;;5074748;28;20205;-64
2021/07/14 05:43:16;;;;;;;7.13;1.60;;;23.90;58.90;;;;;;5074252;28;20209;-64
2021/07/14 05:45:43;;;;;;;5.50;2.10;;;24.20;58.20;;;;;;5073171;28;20240;-65
2021/07/14 05:48:10;;;;;;;6.77;2.13;;;24.30;57.20;;;;;;5073863;28;20214;-65
2021/07/14 05:50:38;;;;;;;8.07;2.10;;;24.50;56.40;;;;;;5073818;28;20631;-65
2021/07/14 05:53:05;;;;;;;4.47;1.80;;;24.70;56.20;;;;;;5073031;28;20213;-65
2021/07/14 05:55:33;;;;;;;4.07;1.60;;;24.90;55.80;;;;;;5074313;28;20213;-65
2021/07/14 05:58:00;;;;;;;9.50;2.23;;;25.20;55.30;;;;;;5074097;28;20577;-65
2021/07/14 06:00:29;;;;;;;5.53;1.80;;;25.40;55.10;;;;;;5056466;28;20214;-65
2021/07/14 06:02:56;;;;;;;5.60;1.87;;;25.60;54.40;;;;;;5061955;28;20624;-65
2021/07/14 06:05:28;;;;;;;6.70;1.97;;;25.80;53.70;;;;;;5064709;28;20210;-65
2021/07/14 06:07:55;;;;;;;10.20;2.27;;;26.10;53.20;;;;;;5062275;28;20218;-65
2021/07/14 06:10:22;;;;;;;3.80;2.00;;;26.30;52.70;;;;;;5065248;28;20544;-65
2021/07/14 06:12:55;;;;;;;7.03;2.00;;;26.60;52.50;;;;;;5063993;28;20260;-65
2021/07/14 06:15:26;;;;;;;6.47;1.97;;;26.80;51.50;;;;;;5062701;28;20222;-65
2021/07/14 06:17:54;;;;;;;4.73;1.60;;;27.10;50.90;;;;;;5061366;28;20246;-65
2021/07/14 06:20:22;;;;;;;11.23;2.20;;;27.20;51.00;;;;;;5063656;28;20209;-65
2021/07/14 06:22:49;;;;;;;7.17;2.10;;;27.30;49.90;;;;;;5063596;28;20218;-65
2021/07/14 06:25:16;;;;;;;5.87;2.17;;;27.30;49.90;;;;;;5063022;28;20209;-65
2021/07/14 06:27:45;;;;;;;7.77;2.13;;;27.40;50.40;;;;;;5063686;28;20226;-65
2021/07/14 06:30:14;;;;;;;12.47;2.00;;;27.50;49.10;;;;;;5062524;28;20218;-65
2021/07/14 06:32:42;;;;;;;6.93;1.67;;;27.50;48.70;;;;;;5065537;28;20214;-65
2021/07/14 06:35:12;;;;;;;10.23;2.23;;;27.50;48.80;;;;;;5061546;28;20210;-65
2021/07/14 06:37:40;;;;;;;3.40;1.50;;;27.50;48.60;;;;;;5063892;28;20234;-65
2021/07/14 06:40:08;;;;;;;9.37;2.47;;;27.40;48.90;;;;;;5064870;28;20209;-65
2021/07/14 06:42:36;;;;;;;5.50;1.97;;;27.20;49.10;;;;;;5061965;28;20279;-65
2021/07/14 06:45:08;;;;;;;6.77;1.93;;;27.00;49.20;;;;;;5061114;28;20214;-65
2021/07/14 06:47:35;;;;;;;5.10;1.80;;;26.70;49.20;;;;;;5063309;28;20663;-65
2021/07/14 06:50:07;;;;;;;8.03;2.37;;;26.50;49.30;;;;;;5061282;28;20247;-65
2021/07/14 06:52:34;;;;;;;4.23;1.67;;;26.30;49.50;;;;;;5063953;28;20225;-65
2021/07/14 06:55:01;;;;;;;4.13;1.60;;;26.00;50.10;;;;;;5060801;28;20210;-65
2021/07/14 06:57:28;;;;;;;6.13;1.87;;;25.80;50.10;;;;;;5064114;28;20252;-65
2021/07/14 06:59:55;;;;;;;5.13;1.97;;;25.70;50.40;;;;;;5060711;28;20214;-65
2021/07/14 07:02:23;;;;;;;6.53;1.70;;;25.50;50.90;;;;;;5064803;28;20210;-65
2021/07/14 07:04:50;;;;;;;5.13;1.83;;;25.40;51.20;;;;;;5063172;28;20211;-65
2021/07/14 07:07:17;;;;;;;9.37;1.93;;;25.20;51.50;;;;;;5065328;28;20560;-65
2021/07/14 07:09:44;;;;;;;5.40;2.10;;;25.10;51.80;;;;;;5065286;28;20214;-65
2021/07/14 07:12:11;;;;;;;11.73;1.77;;;25.10;52.00;;;;;;5068648;28;20220;-65
2021/07/14 07:14:40;;;;;;;9.17;1.70;;;25.00;52.20;;;;;;5065002;28;20656;-65
2021/07/14 07:17:07;;;;;;;9.73;2.40;;;25.00;52.30;;;;;;5070353;28;20241;-65
2021/07/14 07:19:35;;;;;;;5.70;2.10;;;24.90;52.30;;;;;;5067763;28;20295;-65
2021/07/14 07:22:03;;;;;;;4.57;1.70;;;24.90;52.10;;;;;;5066057;28;20210;-65
2021/07/14 07:24:31;;;;;;;7.33;1.63;;;24.90;52.10;;;;;;5067302;28;20216;-65
2021/07/14 07:26:59;;;;;;;5.53;1.77;;;24.80;52.00;;;;;;5066444;28;20664;-65
2021/07/14 07:29:27;;;;;;;4.23;1.90;;;24.80;52.20;;;;;;5066022;28;20557;-65
2021/07/14 07:31:54;;;;;;;5.13;1.80;;;24.80;52.60;;;;;;5067077;28;20214;-64
2021/07/14 07:34:22;;;;;;;6.50;2.20;;;24.80;53.00;;;;;;5066185;28;20294;-64
2021/07/14 07:36:49;;;;;;;7.60;2.17;;;24.80;53.30;;;;;;5070656;28;20599;-64
2021/07/14 07:39:17;;;;;;;9.77;2.10;;;24.80;53.60;;;;;;5069017;28;20217;-64
2021/07/14 07:41:44;;;;;;;7.23;1.93;;;24.80;53.90;;;;;;5065068;28;20544;-65
2021/07/14 07:44:12;;;;;;;9.27;1.93;;;24.80;54.00;;;;;;5070440;28;20552;-65
2021/07/14 07:46:41;;;;;;;14.73;5.83;;;24.80;53.80;;;;;;5064162;28;20645;-64
2021/07/14 07:49:08;;;;;;;7.13;2.30;;;24.80;53.20;;;;;;5060847;28;20739;-64
2021/07/14 07:51:35;;;;;;;7.73;1.73;;;24.80;52.80;;;;;;5067054;28;20229;-64
2021/07/14 07:54:03;;;;;;;8.20;2.40;;;24.80;52.60;;;;;;5064573;28;20214;-64
2021/07/14 07:56:33;;;;;;;7.43;2.17;;;24.80;52.70;;;;;;5064378;28;20238;-64
2021/07/14 07:59:02;;;;;;;5.23;1.63;;;24.90;52.50;;;;;;5065377;28;20212;-65
2021/07/14 08:01:35;;;;;;;4.97;1.50;;;25.00;52.30;;;;;;5063217;28;20214;-64
2021/07/14 08:04:04;;;;;;;6.33;1.77;;;25.00;52.20;;;;;;5065432;28;20309;-64
2021/07/14 08:06:31;;;;;;;9.90;2.57;;;25.00;52.00;;;;;;5069955;28;20217;-64
2021/07/14 08:08:59;;;;;;;4.43;1.53;;;25.10;52.20;;;;;;5064107;28;20217;-64
2021/07/14 08:11:28;;;;;;;12.40;2.00;;;25.10;52.30;;;;;;5062109;28;20210;-64
2021/07/14 08:13:59;;;;;;;5.20;2.17;;;25.10;52.80;;;;;;5063410;28;20225;-64
2021/07/14 08:16:28;;;;;;;5.80;1.73;;;25.20;52.00;;;;;;5061228;28;20230;-64
2021/07/14 08:18:57;;;;;;;31.43;8.00;;;25.20;51.70;;;;;;5062173;28;20254;-65
2021/07/14 08:21:25;;;;;;;11.80;2.23;;;25.20;51.30;;;;;;5064002;28;20214;-65
2021/07/14 08:23:53;;;;;;;8.67;2.10;;;25.20;51.20;;;;;;5065194;28;20245;-64
2021/07/14 08:26:21;;;;;;;7.00;2.37;;;25.10;51.00;;;;;;5064288;28;20210;-64
2021/07/14 08:28:48;;;;;;;9.03;2.03;;;25.10;51.30;;;;;;5062410;28;20202;-65
2021/07/14 08:31:15;;;;;;;7.50;2.43;;;25.00;51.50;;;;;;5065828;28;20222;-65
2021/07/14 08:33:42;;;;;;;11.80;1.80;;;24.90;51.20;;;;;;5059936;28;20298;-65
2021/07/14 08:36:09;;;;;;;4.47;1.67;;;24.80;51.00;;;;;;5068683;28;20216;-64
2021/07/14 08:38:36;;;;;;;10.03;3.00;;;24.60;51.00;;;;;;5064869;28;20260;-64
2021/07/14 08:41:07;;;;;;;8.17;2.07;;;24.60;51.20;;;;;;5062487;28;20205;-64
2021/07/14 08:43:36;;;;;;;3.60;2.03;;;24.50;51.70;;;;;;5066359;28;20209;-64
2021/07/14 08:46:04;;;;;;;8.73;2.13;;;24.60;51.80;;;;;;5061842;28;20205;-64
2021/07/14 08:48:32;;;;;;;10.13;2.17;;;24.70;52.00;;;;;;5063680;28;20214;-64
2021/07/14 08:51:00;;;;;;;10.27;2.33;;;24.80;52.40;;;;;;5064141;28;20217;-64
2021/07/14 08:53:28;;;;;;;7.43;2.40;;;25.00;52.40;;;;;;5064514;28;20516;-64
2021/07/14 08:55:58;;;;;;;7.10;2.33;;;25.30;52.50;;;;;;5065424;28;20252;-67
2021/07/14 08:58:26;;;;;;;8.63;2.43;;;25.50;52.50;;;;;;5061839;28;20400;-67
2021/07/14 09:00:56;;;;;;;6.90;1.93;;;25.70;52.20;;;;;;5065278;28;20211;-67
2021/07/14 09:03:25;;;;;;;6.97;1.97;;;25.70;51.30;;;;;;5063051;28;20668;-67
2021/07/14 09:05:52;;;;;;;8.10;1.80;;;25.60;51.20;;;;;;5061786;28;20210;-68
2021/07/14 09:08:19;;;;;;;2.87;1.40;;;25.30;51.70;;;;;;5066521;28;20209;-67
2021/07/14 09:10:46;;;;;;;4.53;1.67;;;25.20;51.30;;;;;;5062677;28;20209;-67
2021/07/14 09:13:14;;;;;;;4.07;1.63;;;25.00;50.80;;;;;;5066198;28;20218;-67
2021/07/14 09:15:51;;;;;;;4.97;1.67;;;24.90;51.50;;;;;;5063140;28;20214;-67
2021/07/14 09:18:23;;;;;;;5.27;1.93;;;24.90;51.70;;;;;;5064208;28;20246;-67
2021/07/14 09:20:50;;;;;;;4.00;1.70;;;25.00;52.10;;;;;;5065223;28;20531;-67
2021/07/14 09:23:21;;;;;;;13.90;1.60;;;25.20;51.30;;;;;;5062533;28;20293;-67
2021/07/14 09:25:52;;;;;;;2.47;1.30;;;25.40;51.20;;;;;;5066130;28;20206;-67
2021/07/14 09:28:21;;;;;;;5.00;1.60;;;25.40;51.10;;;;;;5062146;28;20647;-67
2021/07/14 09:31:08;;;;;;;6.03;1.63;;;25.40;51.10;;;;;;5065100;28;20218;-68
2021/07/14 09:33:41;;;;;;;3.53;1.40;;;25.50;50.90;;;;;;5066082;28;20297;-67
2021/07/14 09:36:08;;;;;;;5.30;1.40;;;25.70;50.10;;;;;;5066155;28;20210;-67
2021/07/14 09:38:39;;;;;;;4.90;1.70;;;25.80;49.70;;;;;;5062642;28;20234;-67
2021/07/14 09:41:16;;;;;;;2.57;1.50;;;25.90;50.00;;;;;;5064028;28;20598;-67
2021/07/14 09:43:45;;;;;;;8.30;1.40;;;26.10;49.90;;;;;;5068451;28;20201;-67
2021/07/14 09:46:14;;;;;;;5.80;1.27;;;26.00;48.90;;;;;;5062038;28;20644;-68
2021/07/14 09:48:46;;;;;;;4.77;1.47;;;25.90;48.80;;;;;;5061830;28;20224;-67
2021/07/14 09:51:19;;;;;;;3.23;1.53;;;25.80;49.80;;;;;;5061940;28;20221;-67
2021/07/14 09:53:48;;;;;;;2.97;1.23;;;25.80;50.00;;;;;;5063380;28;20210;-67
2021/07/14 09:56:20;;;;;;;3.03;1.60;;;25.90;50.20;;;;;;5061999;28;20217;-67
2021/07/14 09:59:08;;;;;;;5.27;1.67;;;25.90;50.10;;;;;;5064662;28;20316;-67
2021/07/14 10:01:45;;;;;;;3.23;1.60;;;25.80;50.00;;;;;;5061358;28;20229;-67
2021/07/14 10:04:22;;;;;;;6.17;1.90;;;25.80;49.80;;;;;;5061460;28;20202;-67
2021/07/14 10:07:10;;;;;;;16.70;2.23;;;25.70;50.20;;;;;;5062647;28;20300;-67
2021/07/14 10:09:39;;;;;;;1.97;1.17;;;25.60;51.20;;;;;;5060464;28;20206;-67
2021/07/14 10:12:31;;;;;;;2.90;1.30;;;25.60;50.70;;;;;;5062442;28;20268;-67
2021/07/14 10:15:20;;;;;;;3.83;1.67;;;25.60;50.90;;;;;;5060419;28;20224;-67
2021/07/14 10:17:50;;;;;;;6.07;1.20;;;25.70;51.90;;;;;;5065788;28;20249;-67
2021/07/14 10:20:37;;;;;;;3.00;1.53;;;25.80;51.60;;;;;;5060304;28;20276;-66
2021/07/14 10:23:17;;;;;;;5.23;1.57;;;25.90;49.90;;;;;;5062392;28;20217;-66
2021/07/14 10:25:46;;;;;;;5.40;1.37;;;26.00;50.40;;;;;;5060239;28;20214;-67
2021/07/14 10:28:19;;;;;;;8.83;1.50;;;26.10;50.30;;;;;;5063749;28;20758;-67
2021/07/14 10:30:50;;;;;;;5.53;1.40;;;26.20;50.10;;;;;;5063411;28;20218;-67
2021/07/14 10:33:18;;;;;;;5.17;1.57;;;26.30;49.40;;;;;;5061889;28;20261;-66
2021/07/14 10:35:49;;;;;;;3.80;1.50;;;26.30;48.70;;;;;;5063329;28;20594;-67
2021/07/14 10:38:22;;;;;;;4.90;1.47;;;26.40;49.00;;;;;;5061073;28;20226;-67
2021/07/14 10:40:51;;;;;;;2.03;1.30;;;26.50;48.70;;;;;;5063656;28;20527;-67
2021/07/14 10:43:24;;;;;;;6.13;1.63;;;26.60;48.60;;;;;;5064016;28;20693;-67
2021/07/14 10:46:12;;;;;;;3.77;1.20;;;26.70;47.40;;;;;;5061994;28;20207;-67
2021/07/14 10:48:42;;;;;;;3.70;1.50;;;26.90;46.20;;;;;;5062368;28;20643;-67
2021/07/14 10:51:10;;;;;;;3.50;1.60;;;26.90;46.40;;;;;;5060236;28;20363;-67
2021/07/14 10:53:39;;;;;;;6.20;1.60;;;27.00;46.60;;;;;;5061180;28;20223;-67
2021/07/14 10:56:07;;;;;;;2.37;1.13;;;27.00;45.90;;;;;;5062747;28;20282;-67
2021/07/14 10:58:35;;;;;;;4.00;1.27;;;27.00;46.50;;;;;;5064697;28;20616;-67
2021/07/14 11:01:02;;;;;;;4.53;1.53;;;27.00;46.00;;;;;;5060392;28;20590;-67
2021/07/14 11:03:50;;;;;;;3.67;1.33;;;27.30;46.50;;;;;;5064597;28;20206;-67
2021/07/14 11:06:28;;;;;;;4.10;1.67;;;28.00;45.90;;;;;;5060493;28;20217;-67
2021/07/14 11:08:55;;;;;;;4.97;1.53;;;28.70;44.70;;;;;;5061163;28;20229;-67
2021/07/14 11:11:24;;;;;;;2.13;1.23;;;29.30;43.90;;;;;;5064176;28;20228;-67
2021/07/14 11:14:11;;;;;;;4.57;1.43;;;29.70;42.70;;;;;;5061852;28;20595;-68
2021/07/14 11:16:39;;;;;;;6.53;1.90;;;29.70;42.70;;;;;;5061189;28;20284;-67
2021/07/14 11:19:12;;;;;;;5.37;1.37;;;29.50;43.20;;;;;;5060517;28;20241;-67
2021/07/14 11:21:49;;;;;;;5.00;1.27;;;29.60;42.70;;;;;;5061790;28;20207;-67
2021/07/14 11:24:46;;;;;;;5.50;1.57;;;30.00;42.60;;;;;;5061940;28;20213;-67
2021/07/14 11:27:38;;;;;;;2.47;1.30;;;30.50;42.10;;;;;;5063421;28;20232;-67
2021/07/14 11:30:06;;;;;;;2.87;1.40;;;30.80;40.30;;;;;;5059395;28;20600;-67
2021/07/14 11:32:33;;;;;;;2.27;1.07;;;30.90;41.00;;;;;;5063056;28;20594;-67
2021/07/14 11:35:01;;;;;;;3.93;1.30;;;31.10;41.00;;;;;;5061433;28;20214;-68
2021/07/14 11:37:34;;;;;;;6.63;3.93;;;31.40;40.20;;;;;;5063545;28;20835;-67
2021/07/14 11:40:20;;;;;;;114.70;86.77;;;31.60;39.60;;;;;;5061071;28;20210;-67
2021/07/14 11:42:54;;;;;;;304.47;191.90;;;31.80;39.40;;;;;;5061510;28;20257;-65
2021/07/14 11:45:33;;;;;;;76.93;40.60;;;31.80;39.10;;;;;;5063624;28;20363;-65
2021/07/14 11:48:12;;;;;;;105.90;60.00;;;31.90;39.20;;;;;;5064355;28;20217;-65
2021/07/14 11:50:42;;;;;;;83.57;60.93;;;31.80;39.10;;;;;;5063999;28;20217;-65
2021/07/14 11:53:31;;;;;;;13.43;6.87;;;31.90;38.80;;;;;;5064436;28;20308;-65
2021/07/14 11:56:33;;;;;;;8.67;4.00;;;31.80;38.20;;;;;;5063933;28;20217;-65
2021/07/14 11:59:11;;;;;;;11.27;4.87;;;31.70;37.50;;;;;;5063983;28;20226;-65
2021/07/14 12:01:38;;;;;;;2.80;1.60;;;31.60;38.00;;;;;;5065912;28;20205;-65
2021/07/14 12:04:06;;;;;;;46.70;34.53;;;31.60;38.10;;;;;;5065901;28;20305;-65
2021/07/14 12:07:06;;;;;;;5.90;3.00;;;31.60;38.40;;;;;;5064520;28;20225;-65
2021/07/14 12:09:39;;;;;;;2.37;1.30;;;31.50;38.10;;;;;;5073007;28;20236;-65
2021/07/14 12:12:12;;;;;;;5.00;2.33;;;31.40;38.00;;;;;;5067755;28;20283;-65
2021/07/14 12:14:44;;;;;;;10.40;3.00;;;31.30;37.60;;;;;;5064912;28;20301;-65
2021/07/14 12:17:23;;;;;;;3.83;1.50;;;31.20;38.60;;;;;;5065576;28;20280;-65
2021/07/14 12:19:57;;;;;;;6.30;2.90;;;31.20;38.40;;;;;;5066976;28;20257;-65
2021/07/14 12:22:30;;;;;;;6.97;2.63;;;31.20;39.10;;;;;;5066770;28;20202;-65
2021/07/14 12:25:18;;;;;;;5.37;1.63;;;31.20;39.50;;;;;;5065362;28;20678;-65
2021/07/14 12:27:46;;;;;;;3.90;1.20;;;31.30;38.70;;;;;;5063321;28;20214;-65
2021/07/14 12:30:21;;;;;;;4.80;1.23;;;31.20;38.80;;;;;;5064544;28;20295;-65
2021/07/14 12:32:55;;;;;;;3.07;1.20;;;31.30;38.60;;;;;;5064685;28;20213;-65
2021/07/14 12:35:21;;;;;;;5.20;1.27;;;31.30;38.90;;;;;;5066640;28;20220;-65
2021/07/14 12:37:53;;;;;;;4.57;1.40;;;31.00;38.60;;;;;;5067404;28;20311;-65
2021/07/14 12:40:35;;;;;;;4.57;1.30;;;30.80;38.90;;;;;;5063470;28;20211;-65
2021/07/14 12:43:05;;;;;;;1.60;1.10;;;30.60;39.60;;;;;;5065052;28;20209;-67
2021/07/14 12:45:37;;;;;;;2.33;1.07;;;30.90;39.60;;;;;;5067065;28;20213;-67
2021/07/14 12:48:12;;;;;;;3.13;1.10;;;31.20;39.40;;;;;;5060411;28;20736;-67
2021/07/14 12:50:44;;;;;;;2.77;0.80;;;31.30;38.60;;;;;;5065041;28;20213;-67
2021/07/14 12:53:11;;;;;;;1.60;0.73;;;31.30;37.70;;;;;;5061190;28;20214;-67
2021/07/14 12:55:38;;;;;;;1.60;0.80;;;31.30;36.80;;;;;;5064059;28;20217;-67
2021/07/14 12:58:10;;;;;;;3.40;1.10;;;31.30;36.30;;;;;;5061442;28;20230;-66
2021/07/14 13:00:42;;;;;;;2.73;0.73;;;31.20;35.70;;;;;;5065968;28;20213;-67
2021/07/14 13:03:19;;;;;;;1.67;0.80;;;31.20;36.30;;;;;;5060644;28;20209;-66
2021/07/14 13:05:47;;;;;;;3.47;1.10;;;31.20;36.20;;;;;;5063896;28;20311;-67
2021/07/14 13:08:29;;;;;;;2.77;1.03;;;31.30;36.40;;;;;;5063008;28;20236;-67
2021/07/14 13:11:02;;;;;;;1.70;0.80;;;31.20;36.00;;;;;;5066208;28;20227;-67
2021/07/14 13:13:31;;;;;;;2.00;0.67;;;31.20;35.70;;;;;;5062979;28;20218;-67